Time;durP1;ratioP1;P1;durP2;ratioP2;P2;SDS_P1;SDS_P2;PMS_P1;PMS_P2;Temp;Humidity;BMP_temperature;BMP_pressure;BME280_temperature;BME280_humidity;BME280_pressure;Samples;Min_cycle;Max_cycle;Signal;HPM_P1;HPM_P2
2021/09/25 00:02:05;;;;;;;;;;;;;;;19.48;67.84;101186.88;5057318;28;981;-64
2021/09/25 00:04:30;;;;;;;;;;;;;;;19.47;67.61;101177.06;5056999;28;956;-66
2021/09/25 00:06:55;;;;;;;;;;;;;;;19.48;67.93;101180.59;5056841;28;1332;-67
2021/09/25 00:09:20;;;;;;;;;;;;;;;19.47;68.83;101177.06;5057328;28;818;-68
2021/09/25 00:11:45;;;;;;;;;;;;;;;19.48;67.85;101178.75;5056785;28;1044;-67
2021/09/25 00:14:10;;;;;;;;;;;;;;;19.47;68.33;101182.47;5057147;28;941;-66
2021/09/25 00:16:35;;;;;;;;;;;;;;;19.47;68.25;101179.75;5056852;28;886;-67
2021/09/25 00:19:01;;;;;;;;;;;;;;;19.47;68.34;101185.16;5056831;28;1973;-67
2021/09/25 00:21:27;;;;;;;;;;;;;;;19.47;68.29;101179.75;5055505;28;1338;-67
2021/09/25 00:23:52;;;;;;;;;;;;;;;19.47;67.78;101179.75;5056896;28;1040;-66
2021/09/25 00:26:17;;;;;;;;;;;;;;;19.47;68.49;101179.75;5057140;28;941;-66
2021/09/25 00:28:42;;;;;;;;;;;;;;;19.46;68.02;101175.34;5056597;28;1057;-65
2021/09/25 00:31:07;;;;;;;;;;;;;;;19.46;68.37;101175.34;5056962;28;1052;-65
2021/09/25 00:33:32;;;;;;;;;;;;;;;19.46;68.20;101169.09;5056921;28;957;-66
2021/09/25 00:35:57;;;;;;;;;;;;;;;19.46;68.02;101161.84;5056551;28;969;-64
2021/09/25 00:38:22;;;;;;;;;;;;;;;19.45;68.44;101176.34;5056336;28;1894;-64
2021/09/25 00:40:47;;;;;;;;;;;;;;;19.46;68.46;101178.06;5056518;28;838;-65
2021/09/25 00:43:12;;;;;;;;;;;;;;;19.46;68.69;101171.78;5056246;28;887;-65
2021/09/25 00:45:37;;;;;;;;;;;;;;;19.46;67.98;101180.75;5056433;28;982;-65
2021/09/25 00:48:03;;;;;;;;;;;;;;;19.46;68.26;101182.59;5056262;28;791;-64
2021/09/25 00:50:28;;;;;;;;;;;;;;;19.46;68.41;101180.75;5056098;28;997;-65
2021/09/25 00:52:54;;;;;;;;;;;;;;;19.45;68.71;101176.34;5056324;28;775;-65
2021/09/25 00:55:19;;;;;;;;;;;;;;;19.45;68.57;101184.44;5056483;28;791;-65
2021/09/25 00:57:44;;;;;;;;;;;;;;;19.45;68.16;101184.44;5056002;28;1956;-65
2021/09/25 01:00:09;;;;;;;;;;;;;;;19.45;68.94;101184.44;5054836;28;1312;-65
2021/09/25 01:02:34;;;;;;;;;;;;;;;19.45;68.48;101181.75;5054534;28;1088;-66
2021/09/25 01:05:00;;;;;;;;;;;;;;;19.45;68.69;101178.19;5055683;28;1014;-65
2021/09/25 01:07:25;;;;;;;;;;;;;;;19.45;68.91;101176.34;5056069;28;1513;-66
2021/09/25 01:09:50;;;;;;;;;;;;;;;19.46;68.60;101175.34;5056166;28;949;-64
2021/09/25 01:12:15;;;;;;;;;;;;;;;19.45;68.17;101175.50;5056270;28;804;-65
2021/09/25 01:14:40;;;;;;;;;;;;;;;19.44;68.99;101177.34;5055852;28;862;-65
2021/09/25 01:17:05;;;;;;;;;;;;;;;19.45;68.55;101179.03;5055618;28;1298;-65
2021/09/25 01:19:30;;;;;;;;;;;;;;;19.45;68.59;101181.75;5054179;28;2427;-64
2021/09/25 01:21:55;;;;;;;;;;;;;;;19.44;68.56;101180.03;5055626;28;993;-64
2021/09/25 01:24:20;;;;;;;;;;;;;;;19.44;68.72;101177.34;5054263;28;1187;-64
2021/09/25 01:26:45;;;;;;;;;;;;;;;19.45;68.70;101173.63;5055852;28;1032;-64
2021/09/25 01:29:10;;;;;;;;;;;;;;;19.44;68.78;101180.03;5055405;28;1025;-63
2021/09/25 01:31:36;;;;;;;;;;;;;;;19.43;68.25;101179.19;5055310;28;898;-63
2021/09/25 01:34:01;;;;;;;;;;;;;;;19.43;67.74;101178.34;5055253;28;866;-64
2021/09/25 01:36:26;;;;;;;;;;;;;;;19.44;68.71;101174.63;5055176;28;823;-64
2021/09/25 01:38:51;;;;;;;;;;;;;;;19.44;68.78;101182.75;5055728;28;1897;-64
2021/09/25 01:41:17;;;;;;;;;;;;;;;19.43;68.27;101175.63;5055426;28;890;-64
2021/09/25 01:43:42;;;;;;;;;;;;;;;19.43;68.62;101179.19;5055266;28;803;-64
2021/09/25 01:46:07;;;;;;;;;;;;;;;19.43;68.27;101172.94;5055299;28;902;-63
2021/09/25 01:48:32;;;;;;;;;;;;;;;19.43;68.24;101176.50;5055133;28;842;-63
2021/09/25 01:50:57;;;;;;;;;;;;;;;19.42;69.24;101171.22;5054984;28;902;-63
2021/09/25 01:53:22;;;;;;;;;;;;;;;19.43;68.84;101181.03;5055091;28;814;-63
2021/09/25 01:55:47;;;;;;;;;;;;;;;19.43;69.13;101172.94;5055075;28;767;-63
2021/09/25 01:58:12;;;;;;;;;;;;;;;19.42;68.40;101180.19;5055053;28;1894;-63
2021/09/25 02:00:37;;;;;;;;;;;;;;;19.42;68.58;101172.09;5055398;28;799;-65
2021/09/25 02:03:02;;;;;;;;;;;;;;;19.42;68.73;101169.38;5054975;28;944;-65
2021/09/25 02:05:28;;;;;;;;;;;;;;;19.41;68.76;101173.06;5054223;28;815;-66
2021/09/25 02:07:53;;;;;;;;;;;;;;;19.42;68.32;101173.94;5054865;28;1505;-65
2021/09/25 02:10:18;;;;;;;;;;;;;;;19.41;68.71;101178.47;5055115;28;1080;-66
2021/09/25 02:12:43;;;;;;;;;;;;;;;19.41;69.16;101177.63;5055032;28;906;-66
2021/09/25 02:15:08;;;;;;;;;;;;;;;19.41;68.77;101174.94;5055258;28;1040;-66
2021/09/25 02:17:33;;;;;;;;;;;;;;;19.40;68.73;101170.53;5054951;28;1961;-65
2021/09/25 02:19:59;;;;;;;;;;;;;;;19.40;68.46;101174.06;5054689;28;1001;-68
2021/09/25 02:22:24;;;;;;;;;;;;;;;19.40;68.29;101170.53;5054999;28;901;-67
2021/09/25 02:24:49;;;;;;;;;;;;;;;19.40;68.31;101174.06;5053407;28;1163;-67
2021/09/25 02:27:14;;;;;;;;;;;;;;;19.39;68.21;101174.22;5054860;28;966;-67
2021/09/25 02:29:39;;;;;;;;;;;;;;;19.40;69.05;101175.94;5054686;28;882;-68
2021/09/25 02:32:04;;;;;;;;;;;;;;;19.40;67.98;101181.34;5053173;28;1747;-66
2021/09/25 02:34:29;;;;;;;;;;;;;;;19.39;68.81;101174.22;5054624;28;775;-67
2021/09/25 02:36:57;;;;;;;;;;;;;;;19.39;68.41;101166.13;5054344;28;1056;-66
2021/09/25 02:39:22;;;;;;;;;;;;;;;19.39;69.16;101163.41;5054825;28;1910;-66
2021/09/25 02:41:47;;;;;;;;;;;;;;;19.38;69.25;101167.97;5054686;28;1072;-67
2021/09/25 02:44:12;;;;;;;;;;;;;;;19.38;69.21;101164.41;5054561;28;894;-66
2021/09/25 02:46:37;;;;;;;;;;;;;;;19.37;68.84;101155.44;5054630;28;910;-67
2021/09/25 02:49:02;;;;;;;;;;;;;;;19.38;68.77;101156.31;5054381;28;1008;-66
2021/09/25 02:51:27;;;;;;;;;;;;;;;19.38;67.95;101161.72;5054282;28;819;-66
2021/09/25 02:53:53;;;;;;;;;;;;;;;19.37;68.76;101162.72;5054614;28;815;-67
2021/09/25 02:56:18;;;;;;;;;;;;;;;19.38;68.35;101159.84;5052924;28;1166;-67
2021/09/25 02:58:43;;;;;;;;;;;;;;;19.39;68.83;101166.13;5054463;28;1894;-67
2021/09/25 03:01:08;;;;;;;;;;;;;;;19.38;68.71;101162.56;5054148;28;1005;-66
2021/09/25 03:03:33;;;;;;;;;;;;;;;19.38;68.56;101161.72;5054249;28;811;-67
2021/09/25 03:05:58;;;;;;;;;;;;;;;19.37;68.31;101160.84;5054107;28;835;-67
2021/09/25 03:08:23;;;;;;;;;;;;;;;19.37;68.83;101168.97;5054215;28;1394;-67
2021/09/25 03:10:48;;;;;;;;;;;;;;;19.37;68.73;101155.44;5054480;28;1068;-67
2021/09/25 03:13:13;;;;;;;;;;;;;;;19.38;68.24;101167.13;5054466;28;898;-67
2021/09/25 03:15:38;;;;;;;;;;;;;;;19.36;68.79;101161.84;5054291;28;803;-67
2021/09/25 03:18:03;;;;;;;;;;;;;;;19.37;68.31;101168.97;5057341;28;1914;-67
2021/09/25 03:20:28;;;;;;;;;;;;;;;19.36;68.84;101174.50;5057817;28;1067;-67
2021/09/25 03:22:54;;;;;;;;;;;;;;;19.35;68.67;101165.56;5057782;28;993;-67
2021/09/25 03:25:19;;;;;;;;;;;;;;;19.35;68.48;101170.09;5058261;28;807;-64
2021/09/25 03:27:44;;;;;;;;;;;;;;;19.36;68.18;101171.81;5057800;28;985;-64
2021/09/25 03:30:09;;;;;;;;;;;;;;;19.36;68.09;101185.31;5057866;28;1005;-65
2021/09/25 03:32:34;;;;;;;;;;;;;;;19.34;69.16;101182.81;5057697;28;842;-65
2021/09/25 03:34:59;;;;;;;;;;;;;;;19.35;68.58;101187.19;5057542;28;893;-64
2021/09/25 03:37:24;;;;;;;;;;;;;;;19.35;68.48;101178.22;5057574;28;898;-65
2021/09/25 03:39:49;;;;;;;;;;;;;;;19.35;68.70;101179.06;5058003;28;1906;-64
2021/09/25 03:42:14;;;;;;;;;;;;;;;19.35;68.55;101189.03;5057546;28;823;-64
2021/09/25 03:44:40;;;;;;;;;;;;;;;19.33;68.33;101170.28;5057599;28;838;-64
2021/09/25 03:47:05;;;;;;;;;;;;;;;19.34;68.67;101188.22;5057302;28;767;-64
2021/09/25 03:49:30;;;;;;;;;;;;;;;19.34;69.10;101182.81;5057435;28;831;-64
2021/09/25 03:51:55;;;;;;;;;;;;;;;19.34;69.15;101185.50;5057299;28;973;-64
2021/09/25 03:54:20;;;;;;;;;;;;;;;19.33;68.11;101180.25;5057541;28;802;-63
2021/09/25 03:56:45;;;;;;;;;;;;;;;19.34;68.87;101181.94;5057496;28;1172;-64
2021/09/25 03:59:10;;;;;;;;;;;;;;;19.33;69.27;101180.25;5057152;28;1913;-64
2021/09/25 04:01:35;;;;;;;;;;;;;;;19.33;68.15;101180.25;5057057;28;858;-64
2021/09/25 04:04:00;;;;;;;;;;;;;;;19.32;69.32;101178.53;5057220;28;949;-65
2021/09/25 04:06:26;;;;;;;;;;;;;;;19.32;68.62;101173.97;5056898;28;1481;-65
2021/09/25 04:08:51;;;;;;;;;;;;;;;19.32;69.35;101173.97;5056984;28;798;-65
2021/09/25 04:11:16;;;;;;;;;;;;;;;19.32;68.45;101173.97;5057050;28;914;-64
2021/09/25 04:13:41;;;;;;;;;;;;;;;19.31;69.23;101177.69;5057050;28;854;-65
2021/09/25 04:16:06;;;;;;;;;;;;;;;19.32;68.13;101178.53;5057107;28;1001;-65
2021/09/25 04:18:31;;;;;;;;;;;;;;;19.32;69.46;101182.09;5056565;28;1906;-65
2021/09/25 04:20:56;;;;;;;;;;;;;;;19.32;69.22;101179.38;5056952;28;930;-66
2021/09/25 04:23:21;;;;;;;;;;;;;;;19.32;69.09;101175.84;5056646;28;926;-66
2021/09/25 04:25:47;;;;;;;;;;;;;;;19.30;69.07;101170.56;5056701;28;1014;-66
2021/09/25 04:28:12;;;;;;;;;;;;;;;19.32;69.52;101178.53;5056407;28;1064;-66
2021/09/25 04:30:37;;;;;;;;;;;;;;;19.31;68.51;101174.13;5056874;28;970;-66
2021/09/25 04:33:02;;;;;;;;;;;;;;;19.30;68.51;101175.13;5055231;28;1336;-64
2021/09/25 04:35:27;;;;;;;;;;;;;;;19.30;68.52;101175.13;5056451;28;851;-64
2021/09/25 04:37:52;;;;;;;;;;;;;;;19.29;68.67;101171.56;5056259;28;1966;-64
2021/09/25 04:40:17;;;;;;;;;;;;;;;19.30;68.85;101175.97;5056717;28;954;-64
2021/09/25 04:42:42;;;;;;;;;;;;;;;19.30;69.12;101172.44;5056618;28;961;-65
2021/09/25 04:45:11;;;;;;;;;;;;;;;19.30;68.35;101175.13;5056597;28;768;-64
2021/09/25 04:47:36;;;;;;;;;;;;;;;19.30;68.33;101165.16;5055376;28;1282;-65
2021/09/25 04:50:01;;;;;;;;;;;;;;;19.30;69.35;101172.44;5055533;28;1331;-65
2021/09/25 04:52:26;;;;;;;;;;;;;;;19.30;69.03;101172.44;5055430;28;1257;-65
2021/09/25 04:54:52;;;;;;;;;;;;;;;19.29;68.69;101170.72;5054611;28;1753;-67
2021/09/25 04:57:17;;;;;;;;;;;;;;;19.30;68.71;101177.84;5055447;28;1749;-66
2021/09/25 04:59:42;;;;;;;;;;;;;;;19.30;69.27;101161.63;5054472;28;1953;-66
2021/09/25 05:02:07;;;;;;;;;;;;;;;19.29;68.79;101168.88;5055135;28;1354;-65
2021/09/25 05:04:32;;;;;;;;;;;;;;;19.28;69.20;101161.75;5055548;28;1510;-66
2021/09/25 05:06:57;;;;;;;;;;;;;;;19.29;68.67;101157.22;5054767;28;1435;-68
2021/09/25 05:09:22;;;;;;;;;;;;;;;19.28;68.61;101150.94;5053964;28;1508;-69
2021/09/25 05:11:47;;;;;;;;;;;;;;;19.28;68.66;101150.09;5051997;28;1557;-70
2021/09/25 05:14:12;;;;;;;;;;;;;;;19.28;68.77;101147.41;5054297;28;1441;-70
2021/09/25 05:16:38;;;;;;;;;;;;;;;19.27;69.17;101157.34;5054569;28;1412;-64
2021/09/25 05:19:03;;;;;;;;;;;;;;;19.28;68.86;101156.34;5055717;28;1917;-65
2021/09/25 05:21:28;;;;;;;;;;;;;;;19.34;68.97;101152.22;5055987;28;1013;-64
2021/09/25 05:23:53;;;;;;;;;;;;;;;19.39;70.91;101164.25;5055779;28;961;-66
2021/09/25 05:26:18;;;;;;;;;;;;;;;19.43;71.47;101181.03;5055802;28;906;-65
2021/09/25 05:28:43;;;;;;;;;;;;;;;19.43;70.65;101181.91;5054923;28;1949;-64
2021/09/25 05:31:11;;;;;;;;;;;;;;;19.44;72.09;101182.75;5055218;28;1652;-66
2021/09/25 05:33:36;;;;;;;;;;;;;;;19.43;71.55;101192.72;5055640;28;1267;-66
2021/09/25 05:36:01;;;;;;;;;;;;;;;19.44;71.46;101196.25;5055637;28;993;-67
2021/09/25 05:38:27;;;;;;;;;;;;;;;19.43;70.59;101202.66;5055257;28;1897;-67
2021/09/25 05:40:52;;;;;;;;;;;;;;;19.41;70.55;101196.56;5054095;28;1244;-66
2021/09/25 05:43:17;;;;;;;;;;;;;;;19.41;70.70;101188.44;5054989;28;1355;-67
2021/09/25 05:45:42;;;;;;;;;;;;;;;19.39;70.84;101191.28;5054796;28;1426;-66
2021/09/25 05:48:07;;;;;;;;;;;;;;;19.40;70.54;101186.75;5054981;28;1818;-67
2021/09/25 05:50:32;;;;;;;;;;;;;;;19.39;71.23;101195.84;5054820;28;1350;-66
2021/09/25 05:52:57;;;;;;;;;;;;;;;19.40;71.23;101192.16;5054706;28;1228;-66
2021/09/25 05:55:22;;;;;;;;;;;;;;;19.38;70.57;101183.34;5053779;28;1753;-67
2021/09/25 05:57:47;;;;;;;;;;;;;;;19.39;70.78;101188.59;5052845;28;1894;-66
2021/09/25 06:00:12;;;;;;;;;;;;;;;19.41;70.56;101193.84;5053849;28;1632;-67
2021/09/25 06:02:38;;;;;;;;;;;;;;;19.40;71.42;101190.28;5054354;28;1643;-66
2021/09/25 06:05:03;;;;;;;;;;;;;;;19.39;70.70;101185.88;5055338;28;1704;-67
2021/09/25 06:07:28;;;;;;;;;;;;;;;19.39;70.43;101191.28;5052965;28;1473;-66
2021/09/25 06:09:54;;;;;;;;;;;;;;;19.38;70.34;101189.59;5054162;28;1620;-67
2021/09/25 06:12:19;;;;;;;;;;;;;;;19.38;70.58;101191.44;5054331;28;1731;-67
2021/09/25 06:14:45;;;;;;;;;;;;;;;19.36;71.01;101188.03;5053814;28;1370;-67
2021/09/25 06:17:10;;;;;;;;;;;;;;;19.36;71.28;101190.72;5053149;28;1792;-67
2021/09/25 06:19:35;;;;;;;;;;;;;;;19.36;70.50;101190.72;5052252;28;2433;-67
2021/09/25 06:22:00;;;;;;;;;;;;;;;19.36;71.07;101196.13;5036315;28;1558;-67
2021/09/25 06:24:26;;;;;;;;;;;;;;;19.35;70.71;101199.84;5037151;28;1669;-66
2021/09/25 06:26:51;;;;;;;;;;;;;;;19.35;71.24;101205.25;5037820;28;1753;-66
2021/09/25 06:29:16;;;;;;;;;;;;;;;19.34;70.84;101206.28;5037039;28;1528;-66
2021/09/25 06:31:41;;;;;;;;;;;;;;;19.34;70.26;101190.91;5036497;28;1630;-66
2021/09/25 06:34:06;;;;;;;;;;;;;;;19.33;70.78;101194.59;5039579;28;1560;-67
2021/09/25 06:36:33;;;;;;;;;;;;;;;19.32;70.27;101190.19;5037122;28;1472;-67
2021/09/25 06:38:58;;;;;;;;;;;;;;;19.33;70.62;101191.06;5041740;28;1898;-66
2021/09/25 06:41:23;;;;;;;;;;;;;;;19.34;70.21;101190.06;5044308;28;1501;-68
2021/09/25 06:43:48;;;;;;;;;;;;;;;19.33;70.45;101196.47;5050890;28;1408;-66
2021/09/25 06:46:14;;;;;;;;;;;;;;;19.33;70.34;101191.06;5051732;28;1574;-66
2021/09/25 06:48:39;;;;;;;;;;;;;;;19.34;70.91;101203.56;5048339;28;1416;-66
2021/09/25 06:51:04;;;;;;;;;;;;;;;19.34;70.90;101203.56;5053287;28;1313;-67
2021/09/25 06:53:29;;;;;;;;;;;;;;;19.33;70.03;101208.13;5045147;28;1661;-67
2021/09/25 06:55:54;;;;;;;;;;;;;;;19.33;70.32;101207.28;5058383;28;1328;-68
2021/09/25 06:58:19;;;;;;;;;;;;;;;19.34;70.54;101203.56;5044465;28;1886;-67
2021/09/25 07:00:47;;;;;;;;;;;;;;;19.33;70.66;101208.13;5057501;28;1518;-66
2021/09/25 07:03:12;;;;;;;;;;;;;;;19.33;70.47;101209.97;5058340;28;1634;-66
2021/09/25 07:05:37;;;;;;;;;;;;;;;19.34;70.40;101211.69;5057711;28;1189;-66
2021/09/25 07:08:02;;;;;;;;;;;;;;;19.34;69.71;101220.63;5057897;28;1452;-66
2021/09/25 07:10:27;;;;;;;;;;;;;;;19.33;70.75;101213.53;5058532;28;894;-66
2021/09/25 07:12:52;;;;;;;;;;;;;;;19.32;70.14;101203.72;5057703;28;815;-66
2021/09/25 07:15:17;;;;;;;;;;;;;;;19.32;70.25;101211.81;5058059;28;986;-66
2021/09/25 07:17:42;;;;;;;;;;;;;;;19.34;70.39;101208.97;5057965;28;1263;-66
2021/09/25 07:20:08;;;;;;;;;;;;;;;19.33;69.83;101223.47;5057665;28;1905;-66
2021/09/25 07:22:33;;;;;;;;;;;;;;;19.34;69.64;101225.19;5058411;28;768;-66
2021/09/25 07:24:59;;;;;;;;;;;;;;;19.33;70.17;101218.06;5057689;28;818;-67
2021/09/25 07:27:24;;;;;;;;;;;;;;;19.33;70.31;101215.38;5057836;28;779;-66
2021/09/25 07:29:49;;;;;;;;;;;;;;;19.34;69.94;101219.78;5057794;28;870;-67
2021/09/25 07:32:14;;;;;;;;;;;;;;;19.34;70.17;101226.03;5057798;28;839;-66
2021/09/25 07:34:39;;;;;;;;;;;;;;;19.34;70.10;101231.44;5057576;28;980;-66
2021/09/25 07:37:04;;;;;;;;;;;;;;;19.34;69.58;101233.28;5055391;28;1356;-66
2021/09/25 07:39:32;;;;;;;;;;;;;;;19.35;69.76;101234.97;5056650;28;1890;-66
2021/09/25 07:41:57;;;;;;;;;;;;;;;19.35;69.71;101243.06;5056662;28;1337;-67
2021/09/25 07:44:22;;;;;;;;;;;;;;;19.33;70.05;101245.97;5056667;28;1309;-66
2021/09/25 07:46:47;;;;;;;;;;;;;;;19.34;70.14;101249.50;5057111;28;1479;-66
2021/09/25 07:49:12;;;;;;;;;;;;;;;19.33;70.29;101259.47;5055712;28;1483;-66
2021/09/25 07:51:37;;;;;;;;;;;;;;;19.34;70.41;101252.22;5054914;28;1421;-67
2021/09/25 07:54:03;;;;;;;;;;;;;;;19.33;70.08;101255.91;5056458;28;1583;-69
2021/09/25 07:56:28;;;;;;;;;;;;;;;19.33;69.58;101255.91;5057874;28;901;-67
2021/09/25 07:58:53;;;;;;;;;;;;;;;19.34;69.72;101255.78;5057348;28;1907;-67
2021/09/25 08:01:18;;;;;;;;;;;;;;;19.35;69.86;101270.09;5057622;28;934;-68
2021/09/25 08:03:44;;;;;;;;;;;;;;;19.35;69.33;101270.09;5056803;28;799;-66
2021/09/25 08:06:09;;;;;;;;;;;;;;;19.35;69.46;101276.38;5056683;28;1481;-68
2021/09/25 08:08:34;;;;;;;;;;;;;;;19.36;70.44;101286.19;5057175;28;1712;-66
2021/09/25 08:10:59;;;;;;;;;;;;;;;19.36;69.60;101288.88;5057507;28;849;-66
2021/09/25 08:13:24;;;;;;;;;;;;;;;19.37;69.47;101290.59;5057457;28;1013;-66
2021/09/25 08:15:49;;;;;;;;;;;;;;;19.38;70.02;101288.75;5057609;28;993;-66
2021/09/25 08:18:14;;;;;;;;;;;;;;;19.38;70.02;101291.44;5057075;28;1988;-66
2021/09/25 08:20:39;;;;;;;;;;;;;;;19.38;69.45;101295.00;5055999;28;1561;-67
2021/09/25 08:23:04;;;;;;;;;;;;;;;19.39;70.00;101303.97;5055824;28;1535;-66
2021/09/25 08:25:29;;;;;;;;;;;;;;;19.39;70.41;101307.50;5056410;28;1501;-66
2021/09/25 08:27:54;;;;;;;;;;;;;;;19.41;70.14;101301.97;5056362;28;1557;-66
2021/09/25 08:30:20;;;;;;;;;;;;;;;19.41;69.99;101307.38;5057298;28;1597;-66
2021/09/25 08:32:45;;;;;;;;;;;;;;;19.41;70.31;101308.22;5057186;28;814;-66
2021/09/25 08:35:10;;;;;;;;;;;;;;;19.43;69.25;101310.78;5057256;28;981;-66
2021/09/25 08:37:36;;;;;;;;;;;;;;;19.42;70.38;101312.63;5057176;28;795;-67
2021/09/25 08:40:01;;;;;;;;;;;;;;;19.42;70.02;101309.94;5056744;28;1898;-66
2021/09/25 08:42:26;;;;;;;;;;;;;;;19.44;70.87;101320.59;5055380;28;1585;-66
2021/09/25 08:44:51;;;;;;;;;;;;;;;19.45;70.73;101316.91;5055452;28;1551;-67
2021/09/25 08:47:16;;;;;;;;;;;;;;;19.44;70.00;101317.91;5055002;28;1572;-66
2021/09/25 08:49:41;;;;;;;;;;;;;;;19.44;70.45;101317.91;5055399;28;1185;-66
2021/09/25 08:52:07;;;;;;;;;;;;;;;19.46;70.22;101325.88;5056663;28;822;-66
2021/09/25 08:54:32;;;;;;;;;;;;;;;19.45;71.14;101325.00;5056194;28;1645;-66
2021/09/25 08:56:57;;;;;;;;;;;;;;;19.45;71.07;101322.31;5055998;28;1794;-65
2021/09/25 08:59:22;;;;;;;;;;;;;;;19.44;71.14;101323.31;5055619;28;1890;-63
2021/09/25 09:01:48;;;;;;;;;;;;;;;19.45;70.48;101322.31;5055946;28;1634;-63
2021/09/25 09:04:13;;;;;;;;;;;;;;;19.46;70.19;101329.44;5055347;28;1625;-63
2021/09/25 09:06:38;;;;;;;;;;;;;;;19.47;71.00;101327.56;5055117;28;1404;-63
2021/09/25 09:09:03;;;;;;;;;;;;;;;19.47;70.35;101335.69;5055998;28;961;-63
2021/09/25 09:11:28;;;;;;;;;;;;;;;19.47;70.59;101328.44;5054591;28;1766;-64
2021/09/25 09:13:53;;;;;;;;;;;;;;;19.46;70.56;101329.44;5055609;28;827;-63
2021/09/25 09:16:18;;;;;;;;;;;;;;;19.48;70.23;101326.56;5055632;28;1000;-63
2021/09/25 09:18:43;;;;;;;;;;;;;;;19.48;70.81;101319.31;5055617;28;1981;-63
2021/09/25 09:21:09;;;;;;;;;;;;;;;19.49;70.18;101331.00;5055565;28;882;-64
2021/09/25 09:23:34;;;;;;;;;;;;;;;19.48;70.69;101324.72;5054310;28;1475;-63
2021/09/25 09:25:59;;;;;;;;;;;;;;;19.48;70.79;101332.84;5055811;28;885;-63
2021/09/25 09:28:24;;;;;;;;;;;;;;;19.49;70.66;101323.72;5055653;28;776;-63
2021/09/25 09:30:49;;;;;;;;;;;;;;;19.50;70.36;101330.88;5054116;28;830;-64
2021/09/25 09:33:14;;;;;;;;;;;;;;;19.51;69.98;101335.28;5055457;28;795;-63
2021/09/25 09:35:39;;;;;;;;;;;;;;;19.50;70.53;101333.59;5055462;28;992;-63
2021/09/25 09:38:05;;;;;;;;;;;;;;;19.51;69.99;101335.28;5055329;28;1959;-63
2021/09/25 09:40:30;;;;;;;;;;;;;;;19.50;70.90;101328.19;5054810;28;1835;-63
2021/09/25 09:42:55;;;;;;;;;;;;;;;19.50;69.78;101339.00;5055019;28;1354;-63
2021/09/25 09:45:20;;;;;;;;;;;;;;;19.51;70.59;101337.13;5055353;28;1064;-63
2021/09/25 09:47:45;;;;;;;;;;;;;;;19.50;70.14;101336.28;5054909;28;1102;-63
2021/09/25 09:50:10;;;;;;;;;;;;;;;19.51;70.24;101339.84;5053083;28;1271;-63
2021/09/25 09:52:35;;;;;;;;;;;;;;;19.51;70.64;101340.69;5054206;28;1343;-63
2021/09/25 09:55:00;;;;;;;;;;;;;;;19.52;70.28;101345.09;5054593;28;1343;-63
2021/09/25 09:57:25;;;;;;;;;;;;;;;19.53;70.74;101345.94;5054390;28;1366;-63
2021/09/25 09:59:50;;;;;;;;;;;;;;;19.53;70.77;101348.63;5052608;28;1898;-64
2021/09/25 10:02:15;;;;;;;;;;;;;;;19.53;70.56;101344.06;5054708;28;989;-63
2021/09/25 10:04:41;;;;;;;;;;;;;;;19.53;70.59;101345.94;5054996;28;1111;-63
2021/09/25 10:07:06;;;;;;;;;;;;;;;19.52;70.47;101339.69;5054747;28;1447;-64
2021/09/25 10:09:31;;;;;;;;;;;;;;;19.53;70.18;101341.38;5054973;28;1045;-63
2021/09/25 10:11:56;;;;;;;;;;;;;;;19.54;70.36;101339.53;5055072;28;997;-63
2021/09/25 10:14:21;;;;;;;;;;;;;;;19.54;70.08;101334.97;5054162;28;1351;-64
2021/09/25 10:16:46;;;;;;;;;;;;;;;19.55;69.81;101336.69;5054368;28;1323;-63
2021/09/25 10:19:12;;;;;;;;;;;;;;;19.55;70.15;101335.81;5054309;28;1989;-64
2021/09/25 10:21:37;;;;;;;;;;;;;;;19.56;69.98;101332.97;5054293;28;1311;-64
2021/09/25 10:24:02;;;;;;;;;;;;;;;19.57;69.86;101331.97;5054162;28;1208;-63
2021/09/25 10:26:27;;;;;;;;;;;;;;;19.57;70.74;101340.09;5053647;28;1359;-63
2021/09/25 10:28:53;;;;;;;;;;;;;;;19.59;70.07;101343.50;5053914;28;1745;-63
2021/09/25 10:31:18;;;;;;;;;;;;;;;19.60;70.18;101341.66;5054049;28;1323;-63
2021/09/25 10:33:43;;;;;;;;;;;;;;;19.61;69.87;101341.50;5054289;28;1383;-63
2021/09/25 10:36:08;;;;;;;;;;;;;;;19.60;69.72;101342.50;5052809;28;1208;-63
2021/09/25 10:38:33;;;;;;;;;;;;;;;19.63;69.46;101346.78;5053755;28;1890;-63
2021/09/25 10:40:58;;;;;;;;;;;;;;;19.65;69.97;101333.97;5054412;28;847;-63
2021/09/25 10:43:23;;;;;;;;;;;;;;;19.66;69.33;101339.22;5054677;28;819;-63
2021/09/25 10:45:48;;;;;;;;;;;;;;;19.67;69.89;101332.81;5054520;28;815;-63
2021/09/25 10:48:13;;;;;;;;;;;;;;;19.70;69.80;101346.06;5054473;28;811;-62
2021/09/25 10:50:39;;;;;;;;;;;;;;;19.72;69.89;101337.78;5054381;28;886;-63
2021/09/25 10:53:04;;;;;;;;;;;;;;;19.73;69.50;101337.63;5053638;28;1363;-63
2021/09/25 10:55:29;;;;;;;;;;;;;;;19.74;69.77;101335.78;5053791;28;1327;-63
2021/09/25 10:57:54;;;;;;;;;;;;;;;19.74;70.09;101339.34;5053330;28;1959;-63
2021/09/25 11:00:20;;;;;;;;;;;;;;;19.76;69.48;101328.38;5053802;28;1390;-63
2021/09/25 11:02:45;;;;;;;;;;;;;;;19.77;70.28;101335.50;5053801;28;1307;-63
2021/09/25 11:05:10;;;;;;;;;;;;;;;19.78;69.77;101329.09;5054008;28;1386;-63
2021/09/25 11:07:36;;;;;;;;;;;;;;;19.79;69.79;101332.63;5053342;28;1425;-64
2021/09/25 11:10:01;;;;;;;;;;;;;;;19.80;69.24;101335.19;5053987;28;1430;-64
2021/09/25 11:12:26;;;;;;;;;;;;;;;19.84;69.19;101327.66;5053746;28;1240;-63
2021/09/25 11:14:53;;;;;;;;;;;;;;;19.85;69.59;101330.22;5052281;28;1228;-63
2021/09/25 11:17:19;;;;;;;;;;;;;;;19.87;69.59;101332.78;5053944;28;1237;-63
2021/09/25 11:19:44;;;;;;;;;;;;;;;19.91;70.82;101329.59;5054734;28;1909;-63
2021/09/25 11:22:10;;;;;;;;;;;;;;;20.03;74.74;101333.00;5053803;28;1414;-63
2021/09/25 11:24:35;;;;;;;;;;;;;;;20.10;76.43;101334.94;5054347;28;802;-64
2021/09/25 11:27:00;;;;;;;;;;;;;;;20.16;77.81;101330.78;5054021;28;798;-63
2021/09/25 11:29:25;;;;;;;;;;;;;;;20.23;78.34;101321.06;5052841;28;921;-63
2021/09/25 11:31:50;;;;;;;;;;;;;;;20.29;80.22;101319.59;5054020;28;782;-63
2021/09/25 11:34:15;;;;;;;;;;;;;;;20.29;79.00;101325.00;5054015;28;977;-63
2021/09/25 11:36:40;;;;;;;;;;;;;;;20.31;78.02;101312.19;5053899;28;980;-63
2021/09/25 11:39:05;;;;;;;;;;;;;;;20.30;76.54;101327.56;5056637;28;1955;-64
2021/09/25 11:41:30;;;;;;;;;;;;;;;20.25;77.14;101321.75;5058273;28;1607;-62
2021/09/25 11:43:55;;;;;;;;;;;;;;;20.19;76.58;101327.78;5058048;28;994;-62
2021/09/25 11:46:20;;;;;;;;;;;;;;;20.17;76.40;101328.94;5057838;28;861;-62
2021/09/25 11:48:46;;;;;;;;;;;;;;;20.17;75.98;101329.78;5058195;28;830;-62
2021/09/25 11:51:11;;;;;;;;;;;;;;;20.15;74.83;101323.66;5057517;28;777;-62
2021/09/25 11:53:36;;;;;;;;;;;;;;;20.16;75.14;101324.53;5058096;28;997;-62
2021/09/25 11:56:01;;;;;;;;;;;;;;;20.16;74.61;101317.25;5057839;28;928;-63
2021/09/25 11:58:27;;;;;;;;;;;;;;;20.16;73.71;101322.66;5057983;28;1890;-63
2021/09/25 12:00:52;;;;;;;;;;;;;;;20.18;73.77;101319.81;5057412;28;850;-65
2021/09/25 12:03:17;;;;;;;;;;;;;;;20.17;73.23;101310.84;5057713;28;1001;-62
2021/09/25 12:05:42;;;;;;;;;;;;;;;20.17;73.36;101312.69;5057687;28;931;-62
2021/09/25 12:08:08;;;;;;;;;;;;;;;20.19;72.90;101313.41;5057246;28;1726;-64
2021/09/25 12:10:33;;;;;;;;;;;;;;;20.19;73.18;101311.53;5056941;28;858;-63
2021/09/25 12:12:58;;;;;;;;;;;;;;;20.20;72.81;101305.13;5057375;28;834;-62
2021/09/25 12:15:23;;;;;;;;;;;;;;;20.23;72.17;101309.41;5057618;28;874;-62
2021/09/25 12:17:48;;;;;;;;;;;;;;;20.25;72.46;101304.66;5057468;28;1307;-62
2021/09/25 12:20:13;;;;;;;;;;;;;;;20.24;72.33;101295.72;5057488;28;1910;-63
2021/09/25 12:22:42;;;;;;;;;;;;;;;20.26;71.84;101292.81;5056085;28;781;-63
2021/09/25 12:25:08;;;;;;;;;;;;;;;20.25;71.87;101294.69;5056582;28;847;-61
2021/09/25 12:27:33;;;;;;;;;;;;;;;20.26;71.84;101296.38;5057198;28;834;-62
2021/09/25 12:29:58;;;;;;;;;;;;;;;20.28;72.25;101293.53;5055743;28;954;-63
2021/09/25 12:32:23;;;;;;;;;;;;;;;20.27;71.79;101289.97;5056861;28;865;-63
2021/09/25 12:34:48;;;;;;;;;;;;;;;20.27;72.14;101284.56;5055455;28;1069;-62
2021/09/25 12:37:13;;;;;;;;;;;;;;;20.28;71.93;101285.41;5057223;28;984;-63
2021/09/25 12:39:38;;;;;;;;;;;;;;;20.28;71.52;101286.25;5056399;28;1894;-62